美保飛行場の過去48時間の天気

美保飛行場 (Miho)

現在時刻: 7/5 12:46 JST (7/5 03:46 UTC) 以下の時間は現地時間です。

過去48時間のMETAR気象情報
時間 風向 風速(m/s) 視程 気温(℃) 湿度(%) 気圧(hPa) 天気現象
5 12:00 東北東 5 10km以上 31 66 1003
5 11:00 北東 3 10km以上 32 59 1004
5 10:00 北東 4 10km以上 30 66 1004
5 09:00 3 10km以上 30 66 1005
5 08:00 南南東 5 10km以上 29 70 1005
5 07:00 南南東 3 10km以上 27 79 1005
5 06:00 南南東 3 10km以上 27 74 1005
5 05:00 不定 1 10km以上 26 79 1005
5 04:00 南南東 3 10km以上 26 79 1005
5 03:00 南東 3 10km以上 26 79 1005
5 02:00 南南東 3 10km以上 26 84 1005
5 01:00 2 10km以上 26 84 1006
5 00:00 2 10km以上 27 74 1006
4 23:00 南南東 3 10km以上 27 74 1007
4 22:00 3 10km以上 27 74 1006
4 21:00 南南東 3 10km以上 27 74 1006
4 20:00 南南東 3 10km以上 28 70 1006
4 19:00 南東 5 10km以上 28 70 1006 弱いしゅう雨
4 18:00 南南東 3 10km以上 29 66 1006 弱いしゅう雨
4 17:00 5 10km以上 30 66 1006
4 16:00 5 10km以上 31 62 1006
4 15:00 5 10km以上 31 59 1007
4 14:00 南南東 5 10km以上 31 59 1007
4 13:00 南東 5 10km以上 31 62 1007
4 12:00 2 10km以上 30 70 1008
4 11:00 南南東 6 10km以上 30 66 1007
4 10:00 4 10km以上 30 70 1008
4 09:00 4 10km以上 29 70 1008
4 08:00 4 10km以上 29 74 1008
4 07:00 南南西 2 10km以上 28 84 1008
4 06:00 南南東 2 10km以上 27 84 1007
4 05:00 不定 1 10km以上 26 94 1008
4 04:00 南東 1 10km以上 26 94 1008
4 03:00 2 10km以上 26 89 1008
4 02:00 2 10km以上 26 94 1008
4 01:00 南西 2 10km以上 27 89 1008
4 00:00 南南西 2 10km以上 26 94 1008
3 23:00 南南西 3 10km以上 26 94 1009
3 22:00 南西 1 10km以上 27 89 1009
3 21:00 不定 1 10km以上 26 94 1009
3 20:00 不定 1 10km以上 27 89 1009
3 19:00 東北東 2 10km以上 26 94 1009
3 18:00 東北東 3 10km以上 27 89 1009
3 17:00 不定 1 10km以上 27 94 1008
3 16:00 西 3 10km以上 26 89 1009 弱いしゅう雨
3 15:00 南西 3 5000m 26 94 1009 弱い雷雨 もや
3 14:00 4 10km以上 29 79 1008 弱い雷雨
3 13:00 西 4 10km以上 32 63 1009 弱いしゅう雨
RJOH 050300Z 06010KT 9999 FEW030 SCT080 31/24 Q1003
RJOH 050200Z 05005KT 9999 FEW030 BKN080 32/23 Q1004
RJOH 050100Z 05007KT 9999 FEW030 SCT050 BKN080 30/23 Q1004
RJOH 050000Z 09005KT 060V130 9999 FEW030 BKN050 BKN080 30/23 Q1005
RJOH 042300Z 16009KT 9999 FEW030 SCT050 BKN080 29/23 Q1005
RJOH 042200Z 16006KT 9999 FEW030 SCT050 BKN080 27/23 Q1005
RJOH 042100Z 16006KT 9999 FEW030 BKN060 27/22 Q1005
RJOH 042000Z VRB02KT 9999 FEW030 BKN060 26/22 Q1005
RJOH 041900Z 15006KT 9999 FEW035 SCT180 26/22 Q1005
RJOH 041800Z 14005KT 9999 FEW030 SCT060 BKN100 26/22 Q1005
RJOH 041700Z 16005KT 9999 FEW030 BKN060 BKN100 26/23 Q1005
RJOH 041600Z 17003KT 9999 FEW010 BKN060 BKN100 26/23 Q1006
RJOH 041500Z 19003KT 9999 FEW030 SCT060 BKN100 27/22 Q1006
RJOH 041400Z 16006KT 9999 FEW030 SCT060 BKN100 27/22 Q1007
RJOH 041300Z 17005KT 140V200 9999 FEW030 SCT060 BKN100 27/22 Q1006
RJOH 041200Z 15006KT 120V190 9999 FEW030 SCT060 BKN100 27/22 Q1006
RJOH 041100Z 16006KT 9999 FEW030 SCT060 BKN100 28/22 Q1006
RJOH 041000Z 14010KT 9999 -SHRA FEW020 SCT030 BKN060 28/22 Q1006
RJOH 040900Z 15005KT 110V210 9999 -SHRA FEW020 SCT030 BKN060 29/22 Q1006
RJOH 040800Z 19009KT 9999 FEW030 BKN070 BKN100 30/23 Q1006
RJOH 040700Z 19009KT 170V230 9999 FEW030 BKN070 BKN100 31/23 Q1006
RJOH 040600Z 17010KT 9999 FEW030 SCT050 BKN070 31/22 Q1007
RJOH 040500Z 15010KT 9999 FEW030 SCT050 BKN070 31/22 Q1007
RJOH 040400Z 14009KT 100V180 9999 FEW025 BKN050 BKN100 31/23 Q1007
RJOH 040300Z 19003KT 140V220 9999 FEW025 BKN050 BKN100 30/24 Q1008
RJOH 040200Z 16011KT 9999 FEW025 BKN060 BKN100 30/23 Q1007
RJOH 040100Z 18007KT 9999 FEW030 BKN100 BKN140 30/24 Q1008
RJOH 040000Z 17007KT 9999 FEW030 BKN100 BKN140 29/23 Q1008
RJOH 032300Z 19007KT 9999 FEW030 SCT100 BKN140 29/24 Q1008
RJOH 032200Z 20003KT 9999 FEW030 SCT100 BKN140 28/25 Q1008
RJOH 032100Z 16004KT 9999 FEW050 SCT100 BKN140 27/24 Q1007
RJOH 032000Z VRB02KT 9999 FEW045 BKN100 BKN140 26/25 Q1008
RJOH 031900Z 13002KT 9999 FEW030 SCT100 BKN140 26/25 Q1008
RJOH 031800Z 18004KT 150V260 9999 FEW030 SCT100 BKN140 26/24 Q1008
RJOH 031700Z 19004KT 9999 FEW030 BKN140 BKN/// 26/25 Q1008
RJOH 031600Z 23004KT 9999 FEW030 SCT100 BKN140 27/25 Q1008
RJOH 031500Z 21004KT 9999 FEW030 BKN140 BKN/// 26/25 Q1008
RJOH 031400Z 21005KT 9999 FEW030 SCT100 BKN140 26/25 Q1009
RJOH 031300Z 22002KT 9999 FEW030 BKN100 BKN140 27/25 Q1009
RJOH 031200Z VRB02KT 9999 FEW015 SCT040 BKN100 26/25 Q1009
RJOH 031100Z VRB01KT 9999 FEW010 SCT100 BKN160 27/25 Q1009
RJOH 031000Z 06003KT 9999 FEW010 BKN180 26/25 Q1009
RJOH 030900Z 07006KT 9999 FEW010 SCT050 BKN180 27/25 Q1009
RJOH 030800Z VRB02KT 9999 FEW010 SCT030 BKN180 27/26 Q1008
RJOH 030700Z 27005KT 9999 -SHRA FEW010 BKN030 BKN050 26/24 Q1009 RETS
RJOH 030600Z 23005KT 5000 -TSRA BR FEW008 BKN030 FEW030CB BKN050 26/25 Q1009
RJOH 030500Z 35007KT 9999 -TSRA FEW015 BKN030CB BKN060 29/25 Q1008
RJOH 030400Z 26007KT 220V290 9999 -SHRA FEW015 SCT030 FEW030TCU BKN060 32/24 Q1009